Time;durP1;ratioP1;P1;durP2;ratioP2;P2;SDS_P1;SDS_P2;PMS_P1;PMS_P2;Temp;Humidity;BMP_temperature;BMP_pressure;BME280_temperature;BME280_humidity;BME280_pressure;Samples;Min_cycle;Max_cycle;Signal;HPM_P1;HPM_P2
2022/01/01 00:01:59;;;;;;;359.73;200.33;;;;;;;8.20;64.75;95563.44;5025620;28;20447;-71
2022/01/01 00:04:27;;;;;;;383.08;218.05;;;;;;;8.08;62.98;95552.97;5025441;28;20835;-70
2022/01/01 00:06:56;;;;;;;357.25;203.32;;;;;;;8.20;63.65;95566.06;5026407;28;20276;-69
2022/01/01 00:09:24;;;;;;;694.78;466.80;;;;;;;8.15;63.55;95571.16;5024845;28;20215;-70
2022/01/01 00:11:52;;;;;;;491.15;306.33;;;;;;;7.89;64.70;95568.91;5025784;28;20268;-69
2022/01/01 00:14:19;;;;;;;215.02;129.55;;;;;;;7.72;65.83;95562.75;5021139;28;20622;-70
2022/01/01 00:16:46;;;;;;;239.23;143.23;;;;;;;7.61;64.68;95561.66;5008938;28;20208;-70
2022/01/01 00:19:13;;;;;;;197.97;118.23;;;;;;;7.67;64.62;95552.16;5008793;28;20233;-71
2022/01/01 00:21:43;;;;;;;190.77;115.95;;;;;;;7.79;65.04;95561.63;5008259;28;20441;-70
2022/01/01 00:24:11;;;;;;;172.27;111.55;;;;;;;7.60;65.26;95557.47;5007771;28;20733;-72
2022/01/01 00:26:38;;;;;;;179.48;111.03;;;;;;;7.03;66.41;95537.09;5008685;28;20198;-70
2022/01/01 00:29:05;;;;;;;170.23;106.53;;;;;;;7.52;65.91;95546.56;5007230;28;20213;-69
2022/01/01 00:31:32;;;;;;;169.60;107.45;;;;;;;7.43;64.56;95542.63;5009237;28;20193;-70
2022/01/01 00:34:01;;;;;;;176.30;108.97;;;;;;;7.35;66.08;95548.16;5011084;28;20251;-71
2022/01/01 00:36:28;;;;;;;179.02;112.25;;;;;;;7.41;65.06;95535.03;5012038;28;20204;-71
2022/01/01 00:38:55;;;;;;;174.07;108.47;;;;;;;6.83;68.16;95546.94;5013038;28;20218;-70
2022/01/01 00:41:22;;;;;;;174.17;110.97;;;;;;;7.21;66.12;95562.38;5013147;28;20437;-73
2022/01/01 00:43:49;;;;;;;176.57;109.45;;;;;;;7.30;65.87;95537.59;5012269;28;20456;-71
2022/01/01 00:46:16;;;;;;;161.32;101.53;;;;;;;7.31;65.81;95549.59;5028790;28;20274;-72
2022/01/01 00:48:44;;;;;;;166.45;102.82;;;;;;;7.31;65.62;95554.81;5032582;28;20197;-71
2022/01/01 00:51:26;;;;;;;163.15;98.93;;;;;;;7.37;66.53;95546.13;5033489;28;20205;-69
2022/01/01 00:53:54;;;;;;;165.85;101.97;;;;;;;7.09;66.80;95546.66;5030983;28;20637;-71
2022/01/01 00:56:24;;;;;;;163.27;101.00;;;;;;;6.84;67.95;95538.91;5028004;28;20201;-70
2022/01/01 00:58:53;;;;;;;173.40;103.07;;;;;;;6.78;68.41;95533.75;5031997;28;20198;-70
2022/01/01 01:01:25;;;;;;;179.35;107.22;;;;;;;6.93;67.84;95531.59;5033060;28;20201;-70
2022/01/01 01:03:52;;;;;;;168.45;103.07;;;;;;;6.77;66.80;95513.94;5032282;28;20677;-70
2022/01/01 01:06:19;;;;;;;170.90;105.72;;;;;;;6.75;66.51;95514.16;5032877;28;20235;-69
2022/01/01 01:08:47;;;;;;;171.80;104.03;;;;;;;7.00;66.29;95533.13;5031125;28;20201;-71
2022/01/01 01:11:14;;;;;;;182.15;108.10;;;;;;;7.21;65.88;95512.84;5028360;28;20311;-70
2022/01/01 01:13:44;;;;;;;182.00;107.85;;;;;;;7.43;64.62;95486.06;5031739;28;20194;-69
2022/01/01 01:16:11;;;;;;;170.60;104.93;;;;;;;7.51;64.49;95514.47;5032291;28;20245;-70
2022/01/01 01:18:41;;;;;;;178.75;105.50;;;;;;;7.66;63.84;95506.25;5031165;28;20790;-70
2022/01/01 01:21:12;;;;;;;158.75;95.65;;;;;;;7.67;63.96;95518.25;5032225;28;20284;-69
2022/01/01 01:23:39;;;;;;;174.45;106.55;;;;;;;7.79;64.33;95519.09;5031043;28;20197;-71
2022/01/01 01:26:08;;;;;;;171.85;101.50;;;;;;;7.91;63.97;95520.72;5029335;28;20201;-70
2022/01/01 01:28:35;;;;;;;166.38;104.10;;;;;;;7.60;63.73;95507.91;5010706;28;20220;-69
2022/01/01 01:31:02;;;;;;;174.95;108.40;;;;;;;7.60;63.52;95527.97;5012164;28;20228;-69
2022/01/01 01:33:31;;;;;;;170.30;101.78;;;;;;;7.32;64.29;95520.72;5011885;28;20229;-71
2022/01/01 01:36:02;;;;;;;167.90;100.47;;;;;;;7.44;65.18;95532.00;5012141;28;20224;-70
2022/01/01 01:38:29;;;;;;;168.13;103.15;;;;;;;7.70;64.99;95536.84;5012082;28;20208;-70
2022/01/01 01:40:58;;;;;;;167.65;99.93;;;;;;;7.66;65.01;95540.94;5011273;28;20393;-70
2022/01/01 01:43:32;;;;;;;164.80;102.35;;;;;;;7.50;64.88;95522.50;5010649;28;20210;-71
2022/01/01 01:46:04;;;;;;;158.48;100.43;;;;;;;7.14;65.61;95529.34;5012175;28;20182;-71
2022/01/01 01:48:36;;;;;;;169.57;99.38;;;;;;;6.76;67.40;95544.41;5012080;28;20198;-70
2022/01/01 01:51:04;;;;;;;156.73;92.88;;;;;;;6.58;68.67;95528.75;5012129;28;20229;-70
2022/01/01 01:53:32;;;;;;;157.27;94.05;;;;;;;5.93;70.37;95508.50;5010190;28;20216;-71
2022/01/01 01:56:00;;;;;;;159.73;95.50;;;;;;;6.17;69.93;95536.31;5010856;28;20206;-71
2022/01/01 01:58:30;;;;;;;169.57;101.85;;;;;;;6.23;68.25;95532.88;5012740;28;20219;-72
2022/01/01 02:03:31;;;;;;;167.23;98.22;;;;;;;6.39;67.25;95529.72;5031762;28;20200;-71
2022/01/01 02:05:58;;;;;;;164.52;93.78;;;;;;;6.25;67.38;95530.06;5030972;28;20227;-71
2022/01/01 02:08:27;;;;;;;167.55;98.55;;;;;;;6.11;68.31;95531.97;5030910;28;20208;-70
2022/01/01 02:10:54;;;;;;;155.20;89.32;;;;;;;6.11;69.04;95524.16;5030782;28;20220;-71
2022/01/01 02:13:30;;;;;;;151.77;87.55;;;;;;;5.95;68.58;95527.25;5014392;28;20222;-71
2022/01/01 02:16:26;;;;;;;149.75;87.13;;;;;;;5.68;69.02;95531.03;5010622;28;20221;-71
2022/01/01 02:18:55;;;;;;;151.70;88.32;;;;;;;5.74;69.23;95520.59;5010543;28;20229;-70
2022/01/01 02:21:28;;;;;;;136.13;80.90;;;;;;;5.90;68.34;95529.72;5026119;28;20256;-70
2022/01/01 02:23:59;;;;;;;149.50;82.88;;;;;;;6.32;67.50;95518.56;5010786;28;20209;-70
2022/01/01 02:26:35;;;;;;;149.43;85.93;;;;;;;5.96;68.00;95498.47;5011524;28;20606;-70
2022/01/01 02:29:03;;;;;;;129.30;72.30;;;;;;;6.05;68.85;95522.41;5027257;28;20280;-70
2022/01/01 02:31:34;;;;;;;147.15;84.40;;;;;;;6.20;68.60;95517.69;5029257;28;20308;-71
2022/01/01 02:34:07;;;;;;;158.00;93.20;;;;;;;5.89;67.69;95408.50;5030439;28;20292;-70
2022/01/01 02:36:43;;;;;;;165.02;94.28;;;;;;;6.17;68.79;95509.50;5029378;28;20761;-71
2022/01/01 02:39:32;;;;;;;150.35;85.03;;;;;;;6.02;68.58;95502.03;5029446;28;20185;-71
2022/01/01 02:42:10;;;;;;;145.77;85.82;;;;;;;6.07;69.21;95502.19;5031445;28;20251;-71
2022/01/01 02:44:43;;;;;;;137.68;79.05;;;;;;;6.27;68.47;95505.41;5029464;28;20323;-69
2022/01/01 02:47:11;;;;;;;133.20;80.13;;;;;;;6.04;69.42;95505.19;5031261;28;20657;-70
2022/01/01 02:49:40;;;;;;;131.45;77.13;;;;;;;6.40;67.60;95505.31;5029782;28;20201;-70
2022/01/01 02:52:11;;;;;;;146.77;85.13;;;;;;;6.79;66.28;95504.09;5031448;28;20263;-71
2022/01/01 02:54:41;;;;;;;135.38;79.50;;;;;;;6.71;65.96;95489.56;5029433;28;20268;-71
2022/01/01 02:57:08;;;;;;;134.48;80.55;;;;;;;6.08;66.87;95470.75;5027045;28;20196;-71
2022/01/01 02:59:35;;;;;;;130.13;76.97;;;;;;;6.35;67.36;95489.50;5026492;28;20201;-70
2022/01/01 03:02:10;;;;;;;134.60;81.30;;;;;;;5.69;67.81;95491.81;5025448;28;20284;-72
2022/01/01 03:04:52;;;;;;;138.85;80.90;;;;;;;6.18;67.42;95507.47;5029768;28;20193;-70
2022/01/01 03:07:21;;;;;;;106.05;64.03;;;;;;;6.32;67.48;95502.97;5030418;28;20262;-71
2022/01/01 03:09:53;;;;;;;104.82;63.55;;;;;;;6.15;68.19;95481.09;5031013;28;20785;-70
2022/01/01 03:12:27;;;;;;;135.98;76.25;;;;;;;6.02;68.05;95478.63;5026033;28;22145;-70
2022/01/01 03:14:55;;;;;;;124.13;69.85;;;;;;;5.47;69.74;95487.97;5013690;28;20197;-71
2022/01/01 03:17:33;;;;;;;111.82;66.20;;;;;;;5.75;68.50;95474.56;5029496;28;20217;-69
2022/01/01 03:20:01;;;;;;;165.77;91.60;;;;;;;6.14;67.30;95474.31;5030139;28;20196;-70
2022/01/01 03:22:28;;;;;;;151.38;85.65;;;;;;;6.18;67.20;95479.88;5029144;28;20267;-71
2022/01/01 03:24:55;;;;;;;121.00;72.80;;;;;;;6.31;66.16;95483.16;5030249;28;20197;-70
2022/01/01 03:27:23;;;;;;;123.85;73.10;;;;;;;6.09;66.40;95480.13;5024635;28;20198;-70
2022/01/01 03:29:50;;;;;;;123.43;72.82;;;;;;;6.15;65.90;95475.88;5009922;28;20212;-70
2022/01/01 03:32:17;;;;;;;114.47;69.00;;;;;;;6.00;65.55;95478.03;5010798;28;20206;-71
2022/01/01 03:34:45;;;;;;;119.43;69.88;;;;;;;6.11;66.37;95480.72;5009708;28;20321;-71
2022/01/01 03:37:15;;;;;;;110.50;65.95;;;;;;;6.22;65.66;95479.25;5010298;28;20209;-71
2022/01/01 03:39:45;;;;;;;123.97;75.45;;;;;;;5.93;66.89;95472.09;5010648;28;20209;-70
2022/01/01 03:42:12;;;;;;;121.63;75.15;;;;;;;6.35;65.12;95468.69;5011421;28;20210;-69
2022/01/01 03:44:42;;;;;;;127.20;77.15;;;;;;;6.74;63.94;95480.50;5009812;28;20255;-71
2022/01/01 03:47:12;;;;;;;136.13;83.30;;;;;;;6.56;64.58;95483.91;5010288;28;20201;-69
2022/01/01 03:49:40;;;;;;;130.57;81.38;;;;;;;6.56;64.48;95481.31;5010086;28;20285;-70
2022/01/01 03:52:08;;;;;;;153.15;92.95;;;;;;;6.48;64.09;95486.00;5009200;28;20202;-70
2022/01/01 03:54:35;;;;;;;170.55;101.93;;;;;;;6.32;64.80;95466.53;5006018;28;20661;-71
2022/01/01 03:57:04;;;;;;;195.07;110.53;;;;;;;6.33;65.91;95472.53;5009634;28;20264;-70
2022/01/01 03:59:32;;;;;;;194.98;110.95;;;;;;;5.70;68.48;95461.41;5009176;28;20214;-71
2022/01/01 04:01:59;;;;;;;154.43;85.82;;;;;;;5.29;68.97;95453.31;5010179;28;20210;-70
2022/01/01 04:04:28;;;;;;;123.13;69.97;;;;;;;5.53;68.23;95468.91;5008348;28;20232;-71
2022/01/01 04:06:57;;;;;;;128.85;73.80;;;;;;;5.57;68.86;95471.91;5008379;28;20202;-70
2022/01/01 04:09:24;;;;;;;116.65;71.60;;;;;;;5.63;68.32;95458.88;5009475;28;20190;-72
2022/01/01 04:11:51;;;;;;;127.18;73.22;;;;;;;5.78;67.44;95448.16;5008588;28;20230;-72
2022/01/01 04:14:18;;;;;;;135.68;80.57;;;;;;;5.34;68.84;95456.06;5008304;28;20301;-71
2022/01/01 04:16:47;;;;;;;130.68;76.72;;;;;;;5.32;68.83;95468.47;5010258;28;20204;-72
2022/01/01 04:19:14;;;;;;;140.95;78.90;;;;;;;5.18;69.83;95459.16;5008573;28;20230;-72
2022/01/01 04:21:41;;;;;;;124.55;72.15;;;;;;;5.48;69.60;95447.16;5010545;28;20262;-72
2022/01/01 04:24:08;;;;;;;144.07;80.43;;;;;;;5.43;70.03;95439.22;5009531;28;20221;-72
2022/01/01 04:26:35;;;;;;;128.77;73.50;;;;;;;5.55;70.06;95443.53;5008349;28;20194;-70
2022/01/01 04:29:04;;;;;;;165.25;90.80;;;;;;;5.60;69.18;95455.91;5010338;28;20201;-70
2022/01/01 04:31:33;;;;;;;144.02;83.53;;;;;;;5.13;69.87;95434.59;5009352;28;20702;-71
2022/01/01 04:34:05;;;;;;;125.43;74.03;;;;;;;5.34;69.73;95456.88;5027417;28;20220;-70
2022/01/01 04:36:33;;;;;;;129.35;75.18;;;;;;;5.20;70.83;95438.97;5028858;28;20216;-70
2022/01/01 04:38:59;;;;;;;109.75;63.20;;;;;;;4.76;74.16;95430.16;5023601;28;20276;-70
2022/01/01 04:41:35;;;;;;;94.63;55.00;;;;;;;5.15;73.75;95417.00;5009134;28;20201;-69
2022/01/01 04:44:02;;;;;;;79.95;47.67;;;;;;;5.61;72.15;95421.09;5009269;28;20201;-71
2022/01/01 04:46:29;;;;;;;72.78;44.22;;;;;;;5.76;71.11;95413.78;5009105;28;20198;-70
2022/01/01 04:48:56;;;;;;;151.55;89.25;;;;;;;5.69;71.00;95426.03;5008793;28;20201;-69
2022/01/01 04:51:24;;;;;;;105.35;60.13;;;;;;;6.18;69.93;95430.44;5009395;28;20220;-70
2022/01/01 04:53:58;;;;;;;107.18;61.15;;;;;;;6.18;69.46;95428.63;5011741;28;20200;-70
2022/01/01 04:56:29;;;;;;;99.00;56.78;;;;;;;6.24;68.98;95417.34;5013161;28;20201;-70
2022/01/01 04:59:02;;;;;;;105.00;59.30;;;;;;;6.01;68.67;95417.19;5013543;28;20206;-70
2022/01/01 05:01:31;;;;;;;112.85;66.55;;;;;;;6.16;68.57;95417.66;5009129;28;20292;-70
2022/01/01 05:03:59;;;;;;;102.25;59.83;;;;;;;6.45;67.84;95424.75;4990963;28;20264;-70
2022/01/01 05:06:31;;;;;;;103.50;60.45;;;;;;;5.71;69.75;95422.19;5009087;28;20204;-71
2022/01/01 05:09:06;;;;;;;116.78;67.60;;;;;;;5.80;70.14;95433.16;5010204;28;20284;-70
2022/01/01 05:11:33;;;;;;;94.97;58.05;;;;;;;5.91;70.13;95432.50;5010225;28;20589;-71
2022/01/01 05:14:06;;;;;;;98.05;57.20;;;;;;;6.06;69.85;95448.53;5008398;28;20201;-71
2022/01/01 05:16:36;;;;;;;96.68;56.15;;;;;;;5.93;69.61;95451.28;5008552;28;20214;-71
2022/01/01 05:19:07;;;;;;;97.38;56.97;;;;;;;6.14;68.89;95458.69;5008526;28;20241;-70
2022/01/01 05:21:35;;;;;;;105.82;63.45;;;;;;;5.71;70.22;95465.63;5013003;28;20202;-71
2022/01/01 05:24:05;;;;;;;126.20;74.38;;;;;;;5.59;70.52;95459.50;5012622;28;20203;-71
2022/01/01 05:26:32;;;;;;;114.97;70.68;;;;;;;5.79;70.12;95452.34;5012644;28;20202;-71
2022/01/01 05:29:00;;;;;;;119.00;71.97;;;;;;;5.73;69.55;95476.59;5012737;28;20229;-72
2022/01/01 05:31:33;;;;;;;111.93;67.28;;;;;;;5.45;69.82;95445.81;5012436;28;20238;-70
2022/01/01 05:34:03;;;;;;;129.13;80.28;;;;;;;5.55;70.30;95479.09;5012399;28;20248;-71
2022/01/01 05:36:30;;;;;;;141.23;82.63;;;;;;;5.66;69.51;95475.84;5012658;28;20197;-71
2022/01/01 05:39:00;;;;;;;129.32;81.72;;;;;;;5.63;69.32;95503.06;5011716;28;20232;-70
2022/01/01 05:41:27;;;;;;;143.10;86.45;;;;;;;5.21;69.73;95492.50;5012635;28;20197;-71
2022/01/01 05:43:54;;;;;;;150.02;91.13;;;;;;;5.22;69.80;95504.50;5011603;28;20703;-71
2022/01/01 05:46:21;;;;;;;137.02;83.25;;;;;;;5.20;70.30;95506.50;5015584;28;20216;-70
2022/01/01 05:48:51;;;;;;;140.18;87.07;;;;;;;5.10;70.03;95502.56;5031410;28;20193;-69
2022/01/01 05:51:18;;;;;;;141.93;89.75;;;;;;;5.14;70.01;95498.53;5032318;28;20217;-71
2022/01/01 05:53:46;;;;;;;126.75;77.75;;;;;;;5.16;70.18;95486.13;5032386;28;20217;-70
2022/01/01 05:56:16;;;;;;;137.02;82.93;;;;;;;5.24;70.08;95476.50;5031706;28;20201;-70
2022/01/01 05:58:43;;;;;;;139.50;82.35;;;;;;;4.69;72.28;95483.91;5025829;28;20251;-71
2022/01/01 06:01:09;;;;;;;101.78;58.17;;;;;;;4.85;72.43;95488.66;5011962;28;20201;-71
2022/01/01 06:03:37;;;;;;;110.75;63.00;;;;;;;4.92;71.83;95484.25;5009677;28;20234;-71
2022/01/01 06:06:08;;;;;;;98.40;56.92;;;;;;;4.99;72.22;95479.81;5011824;28;20681;-70
2022/01/01 06:08:59;;;;;;;109.00;66.65;;;;;;;5.69;69.49;95481.41;5011396;28;20217;-73
2022/01/01 06:11:26;;;;;;;82.68;47.03;;;;;;;4.78;72.21;95450.75;5011393;28;20885;-70
2022/01/01 06:13:54;;;;;;;77.68;43.70;;;;;;;5.18;72.09;95482.53;5011840;28;20224;-70
2022/01/01 06:16:21;;;;;;;71.07;42.53;;;;;;;5.44;72.10;95483.19;5011462;28;20220;-71
2022/01/01 06:18:53;;;;;;;75.20;44.03;;;;;;;5.56;71.51;95465.13;5011219;28;20222;-71
2022/01/01 06:21:20;;;;;;;75.13;45.05;;;;;;;5.54;71.66;95467.13;5011914;28;20198;-70
2022/01/01 06:23:54;;;;;;;74.70;46.20;;;;;;;5.59;71.77;95488.09;5011437;28;20242;-71
2022/01/01 06:26:28;;;;;;;69.97;42.45;;;;;;;5.83;71.67;95482.16;5010322;28;20208;-70
2022/01/01 06:28:59;;;;;;;70.28;42.97;;;;;;;5.89;71.08;95460.50;5011932;28;20220;-71
2022/01/01 06:31:31;;;;;;;78.45;48.75;;;;;;;5.87;70.58;95473.72;5029378;28;20678;-70
2022/01/01 06:34:01;;;;;;;91.93;55.72;;;;;;;5.93;72.69;95461.69;5030230;28;20703;-70
2022/01/01 06:36:30;;;;;;;81.30;47.08;;;;;;;5.79;72.57;95470.53;5031016;28;20287;-70
2022/01/01 06:38:58;;;;;;;66.68;41.50;;;;;;;5.99;71.56;95477.22;5011014;28;20225;-71
2022/01/01 06:41:25;;;;;;;70.88;42.17;;;;;;;6.22;70.80;95492.25;5010353;28;20190;-71
2022/01/01 06:43:53;;;;;;;64.78;41.05;;;;;;;5.98;71.10;95496.47;5010531;28;20209;-72
2022/01/01 06:46:28;;;;;;;68.25;38.63;;;;;;;5.92;71.95;95506.88;5011549;28;20255;-71
2022/01/01 06:48:56;;;;;;;64.35;40.28;;;;;;;6.18;71.22;95504.09;5010735;28;20205;-71
2022/01/01 06:51:23;;;;;;;64.05;39.70;;;;;;;6.11;70.47;95506.72;5011319;28;20689;-71
2022/01/01 06:53:52;;;;;;;63.80;40.30;;;;;;;6.38;70.66;95502.13;5027167;28;20205;-70
2022/01/01 06:56:21;;;;;;;65.03;41.03;;;;;;;6.47;70.41;95508.63;5026879;28;20197;-71
2022/01/01 06:58:48;;;;;;;66.53;41.53;;;;;;;6.18;71.00;95499.66;5029058;28;20193;-71
2022/01/01 07:01:15;;;;;;;64.40;39.53;;;;;;;5.95;72.04;95493.44;5030552;28;20189;-70
2022/01/01 07:03:42;;;;;;;61.80;37.50;;;;;;;5.97;73.22;95488.84;5029791;28;20201;-68
2022/01/01 07:06:09;;;;;;;59.92;35.75;;;;;;;6.45;73.21;95495.03;5030366;28;20200;-70
2022/01/01 07:08:36;;;;;;;49.25;30.52;;;;;;;6.75;72.52;95495.91;5030578;28;20283;-69
2022/01/01 07:11:03;;;;;;;53.60;33.55;;;;;;;6.98;72.30;95483.06;5030453;28;20216;-68
2022/01/01 07:13:30;;;;;;;148.43;102.47;;;;;;;7.37;72.54;95486.19;5030369;28;20215;-69
2022/01/01 07:15:56;;;;;;;170.40;110.17;;;;;;;7.67;70.19;95500.00;5030184;28;20205;-68
2022/01/01 07:18:23;;;;;;;129.27;82.63;;;;;;;8.08;69.41;95515.66;5030220;28;20476;-67
2022/01/01 07:20:50;;;;;;;60.50;37.20;;;;;;;7.68;69.33;95509.41;5030431;28;20220;-71
2022/01/01 07:23:17;;;;;;;57.20;35.08;;;;;;;7.46;70.89;95516.13;5029906;28;20459;-68
2022/01/01 07:25:44;;;;;;;55.53;36.50;;;;;;;7.62;69.77;95515.50;5030688;28;20201;-66
2022/01/01 07:28:14;;;;;;;56.75;36.72;;;;;;;7.69;69.44;95516.22;5028539;28;20204;-68
2022/01/01 07:30:41;;;;;;;59.50;37.90;;;;;;;7.66;69.74;95501.03;5012672;28;20320;-66
2022/01/01 07:33:11;;;;;;;55.93;37.63;;;;;;;7.84;69.02;95514.00;5025451;28;20448;-67
2022/01/01 07:35:39;;;;;;;65.07;40.53;;;;;;;7.44;69.73;95507.75;5029843;28;20440;-69
2022/01/01 07:38:05;;;;;;;85.47;51.73;;;;;;;7.64;70.49;95506.47;5030392;28;21029;-69
2022/01/01 07:40:34;;;;;;;371.53;276.73;;;;;;;8.16;69.21;95520.53;5030399;28;20436;-67
2022/01/01 07:43:02;;;;;;;72.00;47.20;;;;;;;8.27;68.93;95525.00;5029548;28;20530;-69
2022/01/01 07:45:29;;;;;;;112.57;56.70;;;;;;;8.32;69.04;95522.50;5030033;28;20572;-67
2022/01/01 07:47:56;;;;;;;83.27;54.33;;;;;;;8.61;67.51;95526.81;5029381;28;20442;-65
2022/01/01 07:50:23;;;;;;;94.73;57.80;;;;;;;8.39;68.21;95525.81;5028695;28;20456;-65
2022/01/01 07:52:50;;;;;;;79.53;50.27;;;;;;;8.63;67.23;95530.00;5028775;28;20476;-67
2022/01/01 07:55:17;;;;;;;80.43;51.70;;;;;;;8.58;67.56;95516.84;5028742;28;20440;-66
2022/01/01 07:57:44;;;;;;;62.63;38.77;;;;;;;8.81;66.71;95513.44;5027670;28;20444;-68
2022/01/01 08:00:12;;;;;;;51.57;33.17;;;;;;;9.44;66.13;95500.31;5021821;28;20447;-68
2022/01/01 08:02:45;;;;;;;45.37;30.20;;;;;;;9.68;64.81;95494.75;5025981;28;20483;-67
2022/01/01 08:05:16;;;;;;;45.03;31.00;;;;;;;9.70;64.96;95499.75;5025841;28;20531;-67
2022/01/01 08:07:44;;;;;;;41.83;28.23;;;;;;;9.88;65.64;95487.25;5026517;28;20451;-68
2022/01/01 08:10:31;;;;;;;29.23;19.37;;;;;;;10.31;64.89;95483.28;5024462;28;20447;-65
2022/01/01 08:12:59;;;;;;;27.57;18.27;;;;;;;10.40;64.79;95480.00;5026930;28;21021;-67
2022/01/01 08:15:27;;;;;;;21.50;15.47;;;;;;;10.73;63.77;95492.28;5022383;28;20750;-65
2022/01/01 08:17:54;;;;;;;176.67;123.53;;;;;;;11.22;62.73;95489.50;5020738;28;20452;-66
2022/01/01 08:20:22;;;;;;;30.70;21.53;;;;;;;10.80;62.52;95462.22;5026373;28;20444;-66
2022/01/01 08:22:49;;;;;;;21.57;15.70;;;;;;;10.72;62.35;95465.28;5022075;28;20439;-65
2022/01/01 08:25:17;;;;;;;20.70;15.00;;;;;;;10.57;62.75;95475.53;5025237;28;20547;-68
2022/01/01 08:27:44;;;;;;;20.07;14.93;;;;;;;11.16;61.97;95487.88;5022533;28;20436;-67
2022/01/01 08:30:13;;;;;;;26.07;15.07;;;;;;;10.79;63.37;95489.47;5019467;28;20505;-67
2022/01/01 08:32:41;;;;;;;20.40;14.77;;;;;;;10.76;62.73;95462.94;5026254;28;20494;-67
2022/01/01 08:35:08;;;;;;;17.67;13.53;;;;;;;11.05;62.38;95478.28;5026762;28;20458;-65
2022/01/01 08:37:35;;;;;;;18.17;11.70;;;;;;;11.31;61.71;95486.44;5025540;28;20562;-66
2022/01/01 08:40:04;;;;;;;15.63;9.77;;;;;;;11.57;60.87;95490.94;5026129;28;20474;-67
2022/01/01 08:42:30;;;;;;;10.57;7.47;;;;;;;11.72;60.64;95484.03;5026503;28;20448;-66
2022/01/01 08:44:57;;;;;;;11.00;6.73;;;;;;;12.10;59.08;95480.44;5023101;28;20444;-65
2022/01/01 08:47:26;;;;;;;8.43;5.47;;;;;;;13.10;57.28;95483.75;5024271;28;20431;-66
2022/01/01 08:49:55;;;;;;;6.90;4.80;;;;;;;13.45;55.75;95490.25;5023259;28;20446;-68
2022/01/01 08:52:23;;;;;;;5.03;3.77;;;;;;;13.63;54.98;95495.03;5024203;28;20492;-66
2022/01/01 08:54:58;;;;;;;5.43;3.53;;;;;;;14.12;54.26;95502.22;5027457;28;21025;-65
2022/01/01 08:57:26;;;;;;;2.90;2.50;;;;;;;13.80;52.95;95487.69;5027763;28;20451;-66
2022/01/01 08:59:53;;;;;;;13.20;8.97;;;;;;;14.11;53.84;95470.84;5025184;28;20443;-64
2022/01/01 09:02:20;;;;;;;67.67;50.13;;;;;;;14.08;53.27;95497.75;5026967;28;20510;-66
2022/01/01 09:04:48;;;;;;;3.30;2.77;;;;;;;13.95;52.91;95492.97;5029757;28;20432;-66
2022/01/01 09:07:15;;;;;;;5.33;2.80;;;;;;;13.90;52.84;95501.66;5030064;28;20871;-66
2022/01/01 09:09:42;;;;;;;3.77;2.67;;;;;;;13.83;53.09;95500.34;5027234;28;20440;-66
2022/01/01 09:12:10;;;;;;;3.03;2.40;;;;;;;13.23;54.02;95506.97;5030325;28;20582;-66
2022/01/01 09:14:37;;;;;;;3.00;2.43;;;;;;;13.40;53.92;95504.16;5024825;28;20432;-65
2022/01/01 09:17:06;;;;;;;3.40;2.40;;;;;;;13.29;53.97;95504.38;5022948;28;20440;-62
2022/01/01 09:19:33;;;;;;;4.90;2.90;;;;;;;13.64;53.49;95488.69;5024116;28;20478;-67
2022/01/01 09:22:00;;;;;;;9.80;3.10;;;;;;;14.58;50.77;95479.31;5029174;28;20428;-65
2022/01/01 09:24:27;;;;;;;5.70;2.83;;;;;;;14.54;50.09;95504.66;5024639;28;20468;-63
2022/01/01 09:26:55;;;;;;;4.43;3.13;;;;;;;15.04;49.91;95498.47;5023034;28;20480;-64
2022/01/01 09:29:22;;;;;;;4.50;2.60;;;;;;;15.04;49.57;95490.56;5025249;28;20453;-64
2022/01/01 09:31:49;;;;;;;4.57;3.30;;;;;;;15.34;48.85;95501.03;5016804;28;20476;-66
2022/01/01 09:34:16;;;;;;;6.03;3.07;;;;;;;15.33;48.65;95503.97;5019418;28;20546;-63
2022/01/01 09:36:43;;;;;;;4.67;3.13;;;;;;;14.90;49.68;95506.19;5029469;28;20509;-66
2022/01/01 09:39:10;;;;;;;4.00;3.00;;;;;;;14.72;50.17;95514.66;5028984;28;20451;-65
2022/01/01 09:41:42;;;;;;;4.63;3.30;;;;;;;14.96;50.23;95515.66;5029605;28;20981;-66
2022/01/01 09:44:14;;;;;;;5.30;3.13;;;;;;;14.70;50.90;95527.31;5025778;28;20452;-67
2022/01/01 09:46:44;;;;;;;4.00;2.93;;;;;;;14.52;51.26;95530.50;5027406;28;20494;-67
2022/01/01 09:49:16;;;;;;;5.50;3.37;;;;;;;14.52;51.26;95530.50;5029685;28;20440;-64
2022/01/01 09:51:44;;;;;;;6.67;3.60;;;;;;;14.18;51.40;95526.72;5030240;28;20480;-65
2022/01/01 09:54:12;;;;;;;6.03;3.10;;;;;;;14.50;51.38;95527.31;5029343;28;20440;-66
2022/01/01 09:56:39;;;;;;;4.23;3.20;;;;;;;14.79;51.30;95525.72;5027783;28;20443;-67
2022/01/01 09:59:06;;;;;;;4.20;3.00;;;;;;;14.35;51.82;95529.94;5026264;28;20470;-66
2022/01/01 10:01:34;;;;;;;5.07;3.67;;;;;;;14.12;52.09;95510.13;5026302;28;20451;-68
2022/01/01 10:04:11;;;;;;;5.03;3.80;;;;;;;14.31;52.28;95543.91;5027333;28;20816;-69
2022/01/01 10:06:40;;;;;;;52.07;43.63;;;;;;;14.30;52.14;95537.88;5027472;28;20441;-69
2022/01/01 10:09:09;;;;;;;16.10;12.93;;;;;;;14.17;52.16;95554.16;5028398;28;20513;-71
2022/01/01 10:11:37;;;;;;;6.40;3.87;;;;;;;14.16;51.20;95542.00;5025306;28;20502;-68
2022/01/01 10:14:06;;;;;;;7.37;4.13;;;;;;;14.28;51.88;95541.81;5027477;28;20992;-67
2022/01/01 10:16:44;;;;;;;5.43;4.20;;;;;;;14.03;53.19;95542.53;5025976;28;20515;-65
2022/01/01 10:19:12;;;;;;;4.47;3.40;;;;;;;13.67;53.28;95530.31;5027528;28;20466;-66
2022/01/01 10:21:41;;;;;;;5.17;4.03;;;;;;;14.09;52.30;95547.56;5028684;28;20957;-66
2022/01/01 10:24:14;;;;;;;5.53;3.83;;;;;;;14.14;52.22;95538.88;5028270;28;20455;-65
2022/01/01 10:29:31;;;;;;;19.93;4.60;;;;;;;14.12;52.00;95523.31;5027274;28;20451;-67
2022/01/01 10:32:01;;;;;;;5.50;4.37;;;;;;;14.25;52.04;95520.16;5025784;28;20997;-68
2022/01/01 10:34:33;;;;;;;6.67;4.67;;;;;;;14.11;51.90;95519.09;5028432;28;20522;-68
2022/01/01 10:37:28;;;;;;;6.27;4.23;;;;;;;13.86;52.63;95510.34;5026839;28;20436;-69
2022/01/01 10:39:55;;;;;;;7.47;4.40;;;;;;;14.14;52.79;95508.03;5029464;28;20818;-67
2022/01/01 10:45:08;;;;;;;5.97;4.13;;;;;;;14.46;51.01;95492.00;5029323;28;20466;-68
2022/01/01 10:47:38;;;;;;;7.47;4.43;;;;;;;14.54;51.03;95496.75;5028812;28;20440;-65
2022/01/01 10:52:46;;;;;;;5.83;4.13;;;;;;;15.24;49.82;95486.03;5025220;28;20497;-69
2022/01/01 10:55:15;;;;;;;7.33;4.00;;;;;;;15.23;49.63;95450.13;5026893;28;20443;-68
2022/01/01 10:57:53;;;;;;;4.43;3.43;;;;;;;15.38;47.48;95485.44;5026865;28;20450;-65
2022/01/01 11:00:23;;;;;;;6.07;4.40;;;;;;;15.18;46.98;95484.44;5024492;28;20547;-66
2022/01/01 11:02:55;;;;;;;9.43;5.30;;;;;;;15.42;50.05;95478.59;5023584;28;20967;-64
2022/01/01 11:05:34;;;;;;;13.60;10.43;;;;;;;14.93;47.45;95495.09;5025717;28;20455;-62
2022/01/01 11:08:03;;;;;;;32.73;26.07;;;;;;;15.09;47.89;95483.41;5026935;28;20446;-72
2022/01/01 11:10:31;;;;;;;5.50;4.00;;;;;;;15.44;46.96;95490.44;5026409;28;20440;-63
2022/01/01 11:12:59;;;;;;;5.23;4.07;;;;;;;15.26;46.94;95472.53;5025153;28;20480;-70
2022/01/01 11:15:28;;;;;;;16.33;10.43;;;;;;;14.98;47.18;95476.59;5027610;28;20800;-71
2022/01/01 11:17:56;;;;;;;23.40;15.63;;;;;;;15.23;46.83;95473.09;5026433;28;20483;-70
2022/01/01 11:20:25;;;;;;;5.97;4.90;;;;;;;15.03;46.48;95462.59;5027771;28;20553;-62
2022/01/01 11:22:52;;;;;;;5.07;4.13;;;;;;;15.57;46.28;95468.75;5025414;28;20455;-66
2022/01/01 11:25:19;;;;;;;6.43;4.50;;;;;;;15.50;45.51;95468.25;5026872;28;20440;-66
2022/01/01 11:27:47;;;;;;;5.80;4.27;;;;;;;14.93;45.99;95426.47;5027082;28;20551;-67
2022/01/01 11:30:15;;;;;;;8.70;4.90;;;;;;;15.03;47.09;95476.59;5028079;28;20991;-68
2022/01/01 11:32:53;;;;;;;6.37;4.30;;;;;;;14.90;47.13;95474.53;5027792;28;20541;-66
2022/01/01 11:35:27;;;;;;;6.47;4.53;;;;;;;14.50;47.80;95490.41;5028553;28;20538;-66
2022/01/01 11:38:05;;;;;;;8.03;5.27;;;;;;;14.43;47.66;95479.34;5027535;28;20955;-63
2022/01/01 11:40:39;;;;;;;8.07;5.10;;;;;;;14.53;48.52;95495.16;5028324;28;20451;-67
2022/01/01 11:43:06;;;;;;;7.57;4.90;;;;;;;13.89;49.64;95504.56;5026080;28;20452;-66